HUN3P LHBP-LEPA
Flight info
| Callsign | HUN3P |
|---|---|
| Flight time | 2h 18m |
| Altitude | 37000 |
| Route | GILEP DCT ZOLKU DCT SUNIS DCT RIFEN/N0450F370 DCT BETMU DCT PIDAD DCT TALEP DCT BALEN UT250 RIXOT |
| Aircraft | B738/M-SDE2E3FGHIJ2J5RWXY/LB1 |
Departure
| Time | 2026-05-04 10:04 |
|---|---|
| Airport | Budapest Liszt Ferenc International Airport (LHBP) |
Arrival
| Time | 2026-05-04 12:22 |
|---|---|
| Airport | Palma de Mallorca Airport (LEPA) |
| Time | Latitude | Longitude | Altitude | Speed | Heading |
|---|---|---|---|---|---|
| 2026-05-04 09:34 | 47.43544 | 19.26015 | 456 ft | 0 kts | 312° |
| 2026-05-04 09:57 | 47.43550 | 19.26006 | 456 ft | 2 kts | 312° |
| 2026-05-04 09:58 | 47.43567 | 19.25980 | 456 ft | 5 kts | 322° |
| 2026-05-04 09:58 | 47.43602 | 19.25983 | 456 ft | 6 kts | 25° |
| 2026-05-04 09:58 | 47.43640 | 19.26027 | 456 ft | 8 kts | 35° |
| 2026-05-04 10:00 | 47.43946 | 19.26196 | 457 ft | 9 kts | 42° |
| 2026-05-04 10:00 | 47.43990 | 19.26255 | 458 ft | 8 kts | 42° |
| 2026-05-04 10:02 | 47.43957 | 19.26704 | 469 ft | 45 kts | 133° |
| 2026-05-04 10:04 | 47.39431 | 19.36718 | 3738 ft | 224 kts | 126° |
| 2026-05-04 10:04 | 47.38596 | 19.38777 | 4112 ft | 240 kts | 127° |
| 2026-05-04 10:04 | 47.37391 | 19.40503 | 4489 ft | 250 kts | 158° |
| 2026-05-04 10:04 | 47.35691 | 19.41002 | 5143 ft | 255 kts | 183° |
| 2026-05-04 10:05 | 47.33980 | 19.40359 | 5938 ft | 259 kts | 209° |
| 2026-05-04 10:05 | 47.32671 | 19.38524 | 6700 ft | 267 kts | 239° |
| 2026-05-04 10:05 | 47.32129 | 19.35895 | 7448 ft | 273 kts | 261° |
| 2026-05-04 10:05 | 47.31944 | 19.33051 | 8132 ft | 282 kts | 263° |
| 2026-05-04 10:06 | 47.31820 | 19.30162 | 8842 ft | 288 kts | 264° |
| 2026-05-04 10:06 | 47.31703 | 19.27197 | 9585 ft | 293 kts | 264° |
| 2026-05-04 10:06 | 47.31583 | 19.24163 | 10267 ft | 299 kts | 265° |
| 2026-05-04 10:08 | 47.30609 | 19.02850 | 13083 ft | 369 kts | 265° |
| 2026-05-04 10:08 | 47.30423 | 18.99061 | 13738 ft | 373 kts | 265° |
| 2026-05-04 10:08 | 47.30232 | 18.95233 | 14388 ft | 376 kts | 265° |
| 2026-05-04 10:08 | 47.30038 | 18.91353 | 14989 ft | 380 kts | 265° |
| 2026-05-04 10:09 | 47.29840 | 18.87439 | 15589 ft | 384 kts | 265° |
| 2026-05-04 10:09 | 47.29639 | 18.83502 | 16175 ft | 387 kts | 265° |
| 2026-05-04 10:09 | 47.29436 | 18.79530 | 16759 ft | 391 kts | 266° |
| 2026-05-04 10:09 | 47.29228 | 18.75521 | 17324 ft | 395 kts | 266° |
| 2026-05-04 10:10 | 47.29017 | 18.71465 | 17860 ft | 399 kts | 266° |
| 2026-05-04 10:10 | 47.28805 | 18.67420 | 18439 ft | 402 kts | 266° |
| 2026-05-04 10:10 | 47.28588 | 18.63292 | 18983 ft | 404 kts | 266° |
| 2026-05-04 10:10 | 47.28368 | 18.59166 | 19522 ft | 406 kts | 266° |
| 2026-05-04 10:11 | 47.28144 | 18.54977 | 19990 ft | 410 kts | 266° |
| 2026-05-04 10:11 | 47.27918 | 18.50784 | 20519 ft | 412 kts | 266° |
| 2026-05-04 10:11 | 47.27688 | 18.46561 | 21046 ft | 414 kts | 266° |
| 2026-05-04 10:11 | 47.27460 | 18.42377 | 21521 ft | 416 kts | 266° |
| 2026-05-04 10:12 | 47.27226 | 18.38111 | 21978 ft | 419 kts | 266° |
| 2026-05-04 10:12 | 47.26988 | 18.33815 | 22457 ft | 421 kts | 266° |
| 2026-05-04 10:12 | 47.26747 | 18.29501 | 22926 ft | 424 kts | 266° |
| 2026-05-04 10:12 | 47.26504 | 18.25164 | 23358 ft | 427 kts | 266° |
| 2026-05-04 10:13 | 47.26257 | 18.20786 | 23783 ft | 430 kts | 266° |
| 2026-05-04 10:13 | 47.26004 | 18.16369 | 24152 ft | 432 kts | 266° |
| 2026-05-04 10:13 | 47.25753 | 18.11995 | 24533 ft | 433 kts | 266° |
| 2026-05-04 10:13 | 47.25498 | 18.07565 | 24897 ft | 435 kts | 266° |
| 2026-05-04 10:14 | 47.25240 | 18.03107 | 25260 ft | 437 kts | 266° |
| 2026-05-04 10:14 | 47.24978 | 17.98635 | 25620 ft | 439 kts | 266° |
| 2026-05-04 10:16 | 47.23069 | 17.66857 | 27906 ft | 452 kts | 267° |
| 2026-05-04 10:16 | 47.22784 | 17.62250 | 28216 ft | 453 kts | 266° |
| 2026-05-04 10:16 | 47.22500 | 17.57677 | 28551 ft | 454 kts | 267° |
| 2026-05-04 10:16 | 47.22209 | 17.53041 | 28852 ft | 455 kts | 266° |
| 2026-05-04 10:17 | 47.21917 | 17.48402 | 29137 ft | 457 kts | 266° |
| 2026-05-04 10:17 | 47.21621 | 17.43732 | 29445 ft | 458 kts | 266° |
| 2026-05-04 10:19 | 47.19526 | 17.11486 | 31849 ft | 448 kts | 266° |
| 2026-05-04 10:19 | 47.19223 | 17.06936 | 32143 ft | 447 kts | 266° |
| 2026-05-04 10:19 | 47.18917 | 17.02377 | 32449 ft | 446 kts | 266° |
| 2026-05-04 10:19 | 47.18611 | 16.97827 | 32720 ft | 446 kts | 266° |
| 2026-05-04 10:20 | 47.18306 | 16.93331 | 32993 ft | 445 kts | 266° |
| 2026-05-04 10:20 | 47.17997 | 16.88800 | 33313 ft | 444 kts | 266° |
| 2026-05-04 10:20 | 47.17687 | 16.84285 | 33599 ft | 443 kts | 266° |
| 2026-05-04 10:20 | 47.17375 | 16.79771 | 33856 ft | 443 kts | 266° |
| 2026-05-04 10:21 | 47.17063 | 16.75263 | 34107 ft | 442 kts | 266° |
| 2026-05-04 10:21 | 47.16750 | 16.70769 | 34343 ft | 441 kts | 266° |
| 2026-05-04 10:21 | 47.16439 | 16.66342 | 34566 ft | 441 kts | 266° |
| 2026-05-04 10:21 | 47.16122 | 16.61857 | 34748 ft | 441 kts | 266° |
| 2026-05-04 10:22 | 47.15485 | 16.52900 | 35145 ft | 440 kts | 266° |
| 2026-05-04 10:22 | 47.15165 | 16.48423 | 35367 ft | 439 kts | 266° |
| 2026-05-04 10:22 | 47.14842 | 16.43952 | 35551 ft | 439 kts | 265° |
| 2026-05-04 10:23 | 47.14485 | 16.39492 | 35731 ft | 440 kts | 262° |
| 2026-05-04 10:23 | 47.13715 | 16.35133 | 35917 ft | 442 kts | 252° |
| 2026-05-04 10:25 | 47.02212 | 16.08204 | 36074 ft | 442 kts | 239° |
| 2026-05-04 10:25 | 46.98838 | 16.00714 | 36076 ft | 440 kts | 239° |
| 2026-05-04 10:26 | 46.95487 | 15.93282 | 36082 ft | 439 kts | 239° |
| 2026-05-04 10:26 | 46.92112 | 15.85812 | 36077 ft | 440 kts | 239° |
| 2026-05-04 10:27 | 46.88736 | 15.78364 | 36087 ft | 442 kts | 239° |
| 2026-05-04 10:27 | 46.85319 | 15.70848 | 36076 ft | 445 kts | 239° |
| 2026-05-04 10:28 | 46.81876 | 15.63295 | 36075 ft | 447 kts | 238° |
| 2026-05-04 10:28 | 46.78413 | 15.55719 | 36071 ft | 449 kts | 238° |
| 2026-05-04 10:29 | 46.74942 | 15.48146 | 36073 ft | 451 kts | 238° |
| 2026-05-04 10:29 | 46.71441 | 15.40529 | 36071 ft | 452 kts | 238° |
| 2026-05-04 10:30 | 46.67952 | 15.32959 | 36069 ft | 452 kts | 238° |
| 2026-05-04 10:30 | 46.64438 | 15.25357 | 36072 ft | 451 kts | 238° |
| 2026-05-04 10:31 | 46.60929 | 15.17787 | 36070 ft | 449 kts | 238° |
| 2026-05-04 10:32 | 46.48720 | 14.91599 | 36077 ft | 445 kts | 238° |
| 2026-05-04 10:33 | 46.45239 | 14.84177 | 36078 ft | 444 kts | 238° |
| 2026-05-04 10:33 | 46.41735 | 14.76764 | 36135 ft | 448 kts | 237° |
| 2026-05-04 10:34 | 46.39914 | 14.73141 | 36267 ft | 449 kts | 236° |
| 2026-05-04 10:34 | 46.38039 | 14.69522 | 36507 ft | 446 kts | 235° |
| 2026-05-04 10:34 | 46.36164 | 14.65939 | 36768 ft | 444 kts | 235° |
| 2026-05-04 10:34 | 46.34294 | 14.62364 | 36931 ft | 444 kts | 235° |
| 2026-05-04 10:35 | 46.30596 | 14.55262 | 37088 ft | 438 kts | 236° |
| 2026-05-04 10:35 | 46.26951 | 14.48222 | 37100 ft | 442 kts | 236° |
| 2026-05-04 10:36 | 46.23248 | 14.41066 | 37102 ft | 447 kts | 236° |
| 2026-05-04 10:36 | 46.19507 | 14.33855 | 37109 ft | 449 kts | 235° |
| 2026-05-04 10:37 | 46.15744 | 14.26624 | 37109 ft | 451 kts | 235° |
| 2026-05-04 10:37 | 46.11996 | 14.19442 | 37092 ft | 443 kts | 235° |
| 2026-05-04 10:39 | 45.99754 | 13.96103 | 37116 ft | 437 kts | 235° |
| 2026-05-04 10:40 | 45.96076 | 13.89131 | 37116 ft | 437 kts | 235° |
| 2026-05-04 10:40 | 45.92391 | 13.82161 | 37125 ft | 438 kts | 235° |
| 2026-05-04 10:41 | 45.88713 | 13.75222 | 37125 ft | 440 kts | 235° |
| 2026-05-04 10:41 | 45.84973 | 13.68181 | 37133 ft | 441 kts | 234° |
| 2026-05-04 10:42 | 45.81255 | 13.61201 | 37128 ft | 443 kts | 234° |
| 2026-05-04 10:42 | 45.77499 | 13.54168 | 37127 ft | 444 kts | 234° |
| 2026-05-04 10:43 | 45.73738 | 13.47144 | 37132 ft | 444 kts | 234° |
| 2026-05-04 10:45 | 45.58729 | 13.19282 | 37116 ft | 441 kts | 234° |
| 2026-05-04 10:45 | 45.54979 | 13.12362 | 37112 ft | 440 kts | 234° |
| 2026-05-04 10:46 | 45.51231 | 13.05464 | 37113 ft | 439 kts | 234° |
| 2026-05-04 10:46 | 45.47482 | 12.98580 | 37113 ft | 438 kts | 234° |
| 2026-05-04 10:47 | 45.43735 | 12.91717 | 37111 ft | 438 kts | 234° |
| 2026-05-04 10:47 | 45.40008 | 12.84906 | 37109 ft | 438 kts | 234° |
| 2026-05-04 10:49 | 45.24977 | 12.57607 | 37105 ft | 438 kts | 234° |
| 2026-05-04 10:50 | 45.21208 | 12.50802 | 37108 ft | 438 kts | 234° |
| 2026-05-04 10:52 | 45.06079 | 12.23651 | 37109 ft | 439 kts | 234° |
| 2026-05-04 10:52 | 45.02306 | 12.16921 | 37097 ft | 439 kts | 234° |
| 2026-05-04 10:54 | 44.87117 | 11.89986 | 37108 ft | 437 kts | 233° |
| 2026-05-04 10:56 | 44.71969 | 11.63372 | 37104 ft | 434 kts | 233° |
| 2026-05-04 10:57 | 44.68172 | 11.56742 | 37106 ft | 433 kts | 233° |
| 2026-05-04 10:57 | 44.64386 | 11.50144 | 37098 ft | 433 kts | 233° |
| 2026-05-04 10:58 | 44.60625 | 11.43606 | 37100 ft | 432 kts | 233° |
| 2026-05-04 10:58 | 44.56843 | 11.37045 | 37102 ft | 431 kts | 233° |
| 2026-05-04 10:59 | 44.53066 | 11.30507 | 37101 ft | 431 kts | 233° |
| 2026-05-04 10:59 | 44.49307 | 11.24016 | 37100 ft | 430 kts | 233° |
| 2026-05-04 11:00 | 44.45527 | 11.17504 | 37112 ft | 430 kts | 233° |
| 2026-05-04 11:02 | 44.30419 | 10.91624 | 37115 ft | 430 kts | 233° |
| 2026-05-04 11:05 | 44.02039 | 10.43629 | 37146 ft | 427 kts | 233° |
| 2026-05-04 11:06 | 43.98245 | 10.37273 | 37154 ft | 426 kts | 233° |
| 2026-05-04 11:06 | 43.94469 | 10.30962 | 37158 ft | 426 kts | 233° |
| 2026-05-04 11:10 | 43.67963 | 9.87040 | 37142 ft | 423 kts | 233° |
| 2026-05-04 11:12 | 43.52852 | 9.62296 | 37127 ft | 422 kts | 233° |
| 2026-05-04 11:12 | 43.49062 | 9.56122 | 37124 ft | 422 kts | 233° |
| 2026-05-04 11:13 | 43.45267 | 9.49954 | 37115 ft | 421 kts | 234° |
| 2026-05-04 11:13 | 43.41484 | 9.43818 | 37106 ft | 421 kts | 234° |
| 2026-05-04 11:14 | 43.37687 | 9.37674 | 37106 ft | 421 kts | 234° |
| 2026-05-04 11:16 | 43.22539 | 9.13287 | 37083 ft | 418 kts | 234° |
| 2026-05-04 11:16 | 43.18753 | 9.07223 | 37089 ft | 417 kts | 234° |
| 2026-05-04 11:17 | 43.14992 | 9.01214 | 37088 ft | 416 kts | 234° |
| 2026-05-04 11:19 | 43.00598 | 8.78323 | 37087 ft | 411 kts | 234° |
| 2026-05-04 11:19 | 42.96861 | 8.72410 | 37085 ft | 410 kts | 234° |
| 2026-05-04 11:20 | 42.93158 | 8.66563 | 37083 ft | 408 kts | 234° |
| 2026-05-04 11:20 | 42.89445 | 8.60711 | 37082 ft | 407 kts | 234° |
| 2026-05-04 11:22 | 42.74670 | 8.37539 | 37059 ft | 402 kts | 234° |
| 2026-05-04 11:23 | 42.71014 | 8.31834 | 37078 ft | 402 kts | 234° |
| 2026-05-04 11:25 | 42.58166 | 8.11872 | 37064 ft | 400 kts | 234° |
| 2026-05-04 11:25 | 42.54491 | 8.06186 | 37066 ft | 400 kts | 234° |
| 2026-05-04 11:27 | 42.37983 | 7.80786 | 37076 ft | 399 kts | 233° |
| 2026-05-04 11:28 | 42.34333 | 7.75199 | 37060 ft | 398 kts | 233° |
| 2026-05-04 11:28 | 42.30665 | 7.69596 | 37075 ft | 398 kts | 233° |
| 2026-05-04 11:29 | 42.26999 | 7.64006 | 37064 ft | 397 kts | 233° |
| 2026-05-04 11:29 | 42.23326 | 7.58416 | 37131 ft | 396 kts | 232° |
| 2026-05-04 11:33 | 41.98024 | 7.20198 | 37060 ft | 385 kts | 232° |
| 2026-05-04 11:33 | 41.94441 | 7.14824 | 37060 ft | 385 kts | 232° |
| 2026-05-04 11:34 | 41.90861 | 7.09466 | 37058 ft | 385 kts | 232° |
| 2026-05-04 11:34 | 41.87274 | 7.04107 | 37058 ft | 386 kts | 232° |
| 2026-05-04 11:35 | 41.83701 | 6.98778 | 37059 ft | 387 kts | 232° |
| 2026-05-04 11:35 | 41.80091 | 6.93403 | 37062 ft | 388 kts | 232° |
| 2026-05-04 11:36 | 41.76469 | 6.88023 | 37051 ft | 389 kts | 232° |
| 2026-05-04 11:36 | 41.72835 | 6.82633 | 37051 ft | 390 kts | 231° |
| 2026-05-04 11:37 | 41.69195 | 6.77244 | 37051 ft | 390 kts | 231° |
| 2026-05-04 11:37 | 41.65565 | 6.71880 | 37049 ft | 391 kts | 231° |
| 2026-05-04 11:38 | 41.61913 | 6.66493 | 37045 ft | 391 kts | 231° |
| 2026-05-04 11:38 | 41.58255 | 6.61108 | 37046 ft | 391 kts | 231° |
| 2026-05-04 11:39 | 41.54600 | 6.55736 | 37040 ft | 391 kts | 231° |
| 2026-05-04 11:41 | 41.41817 | 6.37025 | 37029 ft | 389 kts | 231° |
| 2026-05-04 11:41 | 41.38162 | 6.31697 | 37035 ft | 389 kts | 231° |
| 2026-05-04 11:42 | 41.34506 | 6.26377 | 37027 ft | 389 kts | 231° |
| 2026-05-04 11:42 | 41.30848 | 6.21063 | 37033 ft | 389 kts | 231° |
| 2026-05-04 11:43 | 41.27184 | 6.15750 | 37022 ft | 389 kts | 231° |
| 2026-05-04 11:43 | 41.23542 | 6.10478 | 37020 ft | 389 kts | 231° |
| 2026-05-04 11:44 | 41.20134 | 6.04919 | 37023 ft | 387 kts | 235° |
| 2026-05-04 11:44 | 41.18514 | 6.02043 | 36860 ft | 390 kts | 236° |
| 2026-05-04 11:44 | 41.16902 | 5.99167 | 36341 ft | 393 kts | 236° |
| 2026-05-04 11:44 | 41.15270 | 5.96270 | 35887 ft | 390 kts | 235° |
| 2026-05-04 11:45 | 41.13647 | 5.93412 | 35439 ft | 385 kts | 235° |
| 2026-05-04 11:45 | 41.12036 | 5.90594 | 34997 ft | 382 kts | 235° |
| 2026-05-04 11:45 | 41.10428 | 5.87795 | 34562 ft | 381 kts | 235° |
| 2026-05-04 11:45 | 41.08817 | 5.84999 | 34135 ft | 380 kts | 235° |
| 2026-05-04 11:46 | 41.07207 | 5.82209 | 33669 ft | 379 kts | 234° |
| 2026-05-04 11:46 | 41.05601 | 5.79432 | 33187 ft | 381 kts | 234° |
| 2026-05-04 11:46 | 41.03995 | 5.76656 | 32724 ft | 386 kts | 234° |
| 2026-05-04 11:46 | 41.02336 | 5.73794 | 32264 ft | 392 kts | 234° |
| 2026-05-04 11:47 | 41.00667 | 5.70916 | 31805 ft | 394 kts | 234° |
| 2026-05-04 11:47 | 40.99015 | 5.68073 | 31357 ft | 394 kts | 234° |
| 2026-05-04 11:47 | 40.97343 | 5.65198 | 30912 ft | 395 kts | 234° |
| 2026-05-04 11:47 | 40.95665 | 5.62314 | 30476 ft | 395 kts | 233° |
| 2026-05-04 11:48 | 40.93981 | 5.59422 | 30049 ft | 396 kts | 233° |
| 2026-05-04 11:48 | 40.92293 | 5.56529 | 29533 ft | 397 kts | 233° |
| 2026-05-04 11:48 | 40.90591 | 5.53611 | 29052 ft | 403 kts | 233° |
| 2026-05-04 11:48 | 40.88885 | 5.50691 | 28576 ft | 399 kts | 233° |
| 2026-05-04 11:49 | 40.87214 | 5.47834 | 28131 ft | 396 kts | 233° |
| 2026-05-04 11:49 | 40.85522 | 5.44943 | 27692 ft | 401 kts | 233° |
| 2026-05-04 11:49 | 40.83803 | 5.42006 | 27253 ft | 405 kts | 233° |
| 2026-05-04 11:49 | 40.82068 | 5.39045 | 26819 ft | 408 kts | 233° |
| 2026-05-04 11:50 | 40.80322 | 5.36070 | 26396 ft | 411 kts | 233° |
| 2026-05-04 11:50 | 40.78563 | 5.33075 | 25979 ft | 413 kts | 233° |
| 2026-05-04 11:50 | 40.76819 | 5.30110 | 25579 ft | 412 kts | 233° |
| 2026-05-04 11:50 | 40.75082 | 5.27161 | 25249 ft | 401 kts | 233° |
| 2026-05-04 11:51 | 40.73391 | 5.24294 | 24933 ft | 390 kts | 234° |
| 2026-05-04 11:51 | 40.71738 | 5.21492 | 24619 ft | 381 kts | 234° |
| 2026-05-04 11:51 | 40.70126 | 5.18762 | 24315 ft | 373 kts | 234° |
| 2026-05-04 11:51 | 40.68546 | 5.16088 | 24013 ft | 366 kts | 234° |
| 2026-05-04 11:52 | 40.67009 | 5.13486 | 23727 ft | 364 kts | 234° |
| 2026-05-04 11:52 | 40.65445 | 5.10841 | 23403 ft | 364 kts | 234° |
| 2026-05-04 11:52 | 40.63888 | 5.08209 | 23056 ft | 364 kts | 234° |
| 2026-05-04 11:52 | 40.62328 | 5.05574 | 22707 ft | 364 kts | 234° |
| 2026-05-04 11:53 | 40.60769 | 5.02945 | 22360 ft | 365 kts | 234° |
| 2026-05-04 11:53 | 40.59206 | 5.00311 | 22024 ft | 365 kts | 233° |
| 2026-05-04 11:53 | 40.57638 | 4.97673 | 21687 ft | 365 kts | 233° |
| 2026-05-04 11:53 | 40.56096 | 4.95079 | 21357 ft | 365 kts | 233° |
| 2026-05-04 11:55 | 40.45664 | 4.77593 | 19547 ft | 334 kts | 233° |
| 2026-05-04 11:55 | 40.44232 | 4.75198 | 19310 ft | 333 kts | 233° |
| 2026-05-04 11:56 | 40.42800 | 4.72805 | 19074 ft | 333 kts | 233° |
| 2026-05-04 11:56 | 40.41361 | 4.70403 | 18842 ft | 334 kts | 233° |
| 2026-05-04 11:56 | 40.39939 | 4.68033 | 18616 ft | 335 kts | 233° |
| 2026-05-04 11:56 | 40.38501 | 4.65617 | 18384 ft | 335 kts | 234° |
| 2026-05-04 11:57 | 40.37123 | 4.63171 | 18118 ft | 331 kts | 234° |
| 2026-05-04 11:57 | 40.35783 | 4.60733 | 17847 ft | 327 kts | 235° |
| 2026-05-04 11:57 | 40.34462 | 4.58318 | 17574 ft | 324 kts | 235° |
| 2026-05-04 11:57 | 40.33152 | 4.55928 | 17330 ft | 320 kts | 235° |
| 2026-05-04 11:58 | 40.31854 | 4.53568 | 17058 ft | 317 kts | 234° |
| 2026-05-04 11:58 | 40.30586 | 4.51270 | 16801 ft | 314 kts | 234° |
| 2026-05-04 11:58 | 40.29309 | 4.48962 | 16546 ft | 311 kts | 234° |
| 2026-05-04 11:58 | 40.28043 | 4.46676 | 16293 ft | 310 kts | 234° |
| 2026-05-04 11:59 | 40.26768 | 4.44378 | 16046 ft | 313 kts | 234° |
| 2026-05-04 11:59 | 40.25479 | 4.42057 | 15813 ft | 315 kts | 234° |
| 2026-05-04 11:59 | 40.24188 | 4.39735 | 15560 ft | 314 kts | 234° |
| 2026-05-04 11:59 | 40.22903 | 4.37426 | 15312 ft | 312 kts | 234° |
| 2026-05-04 12:00 | 40.21623 | 4.35130 | 15066 ft | 311 kts | 234° |
| 2026-05-04 12:00 | 40.20364 | 4.32871 | 14824 ft | 310 kts | 234° |
| 2026-05-04 12:00 | 40.19096 | 4.30599 | 14584 ft | 309 kts | 234° |
| 2026-05-04 12:00 | 40.17831 | 4.28333 | 14351 ft | 308 kts | 233° |
| 2026-05-04 12:01 | 40.16569 | 4.26075 | 14112 ft | 307 kts | 233° |
| 2026-05-04 12:01 | 40.15315 | 4.23832 | 13878 ft | 306 kts | 233° |
| 2026-05-04 12:02 | 40.07809 | 4.10441 | 12348 ft | 302 kts | 233° |
| 2026-05-04 12:03 | 40.06589 | 4.08270 | 12098 ft | 297 kts | 233° |
| 2026-05-04 12:03 | 40.05381 | 4.06120 | 11882 ft | 290 kts | 233° |
| 2026-05-04 12:03 | 40.04193 | 4.04010 | 11683 ft | 284 kts | 233° |
| 2026-05-04 12:03 | 40.03050 | 4.01927 | 11474 ft | 280 kts | 237° |
| 2026-05-04 12:04 | 40.02427 | 4.00459 | 11339 ft | 278 kts | 242° |
| 2026-05-04 12:04 | 40.01612 | 3.98179 | 11149 ft | 276 kts | 244° |
| 2026-05-04 12:04 | 40.00587 | 3.95152 | 10891 ft | 275 kts | 244° |
| 2026-05-04 12:04 | 39.99812 | 3.92873 | 10700 ft | 274 kts | 244° |
| 2026-05-04 12:05 | 39.99287 | 3.91341 | 10565 ft | 273 kts | 244° |
| 2026-05-04 12:05 | 39.98506 | 3.89086 | 10374 ft | 273 kts | 244° |
| 2026-05-04 12:05 | 39.97730 | 3.86864 | 10191 ft | 272 kts | 243° |
| 2026-05-04 12:05 | 39.96941 | 3.84621 | 9999 ft | 272 kts | 243° |
| 2026-05-04 12:06 | 39.96150 | 3.82385 | 9804 ft | 271 kts | 243° |
| 2026-05-04 12:06 | 39.95358 | 3.80154 | 9588 ft | 271 kts | 243° |
| 2026-05-04 12:06 | 39.94563 | 3.77919 | 9383 ft | 271 kts | 243° |
| 2026-05-04 12:06 | 39.93769 | 3.75695 | 9180 ft | 270 kts | 243° |
| 2026-05-04 12:07 | 39.92975 | 3.73473 | 8986 ft | 270 kts | 243° |
| 2026-05-04 12:07 | 39.92180 | 3.71252 | 8778 ft | 271 kts | 243° |
| 2026-05-04 12:07 | 39.91391 | 3.69049 | 8588 ft | 272 kts | 243° |
| 2026-05-04 12:07 | 39.90591 | 3.66817 | 8378 ft | 272 kts | 243° |
| 2026-05-04 12:08 | 39.89792 | 3.64593 | 8175 ft | 270 kts | 243° |
| 2026-05-04 12:08 | 39.88997 | 3.62379 | 7975 ft | 269 kts | 243° |
| 2026-05-04 12:08 | 39.88205 | 3.60177 | 7771 ft | 268 kts | 243° |
| 2026-05-04 12:08 | 39.87416 | 3.57986 | 7584 ft | 266 kts | 243° |
| 2026-05-04 12:09 | 39.86629 | 3.55800 | 7378 ft | 265 kts | 243° |
| 2026-05-04 12:09 | 39.85848 | 3.53634 | 7188 ft | 263 kts | 243° |
| 2026-05-04 12:09 | 39.85070 | 3.51476 | 6992 ft | 262 kts | 243° |
| 2026-05-04 12:09 | 39.84308 | 3.49364 | 6799 ft | 260 kts | 243° |
| 2026-05-04 12:10 | 39.83539 | 3.47236 | 6606 ft | 259 kts | 243° |
| 2026-05-04 12:10 | 39.82764 | 3.45094 | 6411 ft | 258 kts | 243° |
| 2026-05-04 12:10 | 39.82011 | 3.43014 | 6215 ft | 257 kts | 243° |
| 2026-05-04 12:10 | 39.81253 | 3.40919 | 6013 ft | 253 kts | 243° |
| 2026-05-04 12:11 | 39.80507 | 3.38859 | 5808 ft | 249 kts | 243° |
| 2026-05-04 12:11 | 39.79775 | 3.36839 | 5601 ft | 245 kts | 243° |
| 2026-05-04 12:11 | 39.79054 | 3.34853 | 5388 ft | 241 kts | 243° |
| 2026-05-04 12:11 | 39.78343 | 3.32893 | 5191 ft | 237 kts | 243° |
| 2026-05-04 12:12 | 39.77644 | 3.30970 | 5036 ft | 233 kts | 243° |
| 2026-05-04 12:12 | 39.76943 | 3.29043 | 5002 ft | 238 kts | 243° |
| 2026-05-04 12:12 | 39.76246 | 3.27127 | 4984 ft | 235 kts | 244° |
| 2026-05-04 12:12 | 39.75562 | 3.25247 | 4960 ft | 225 kts | 243° |
| 2026-05-04 12:13 | 39.74913 | 3.23464 | 4955 ft | 212 kts | 243° |
| 2026-05-04 12:14 | 39.70639 | 3.11757 | 4985 ft | 201 kts | 243° |
| 2026-05-04 12:15 | 39.70034 | 3.10107 | 4969 ft | 202 kts | 244° |
| 2026-05-04 12:15 | 39.69432 | 3.08461 | 4958 ft | 198 kts | 243° |
| 2026-05-04 12:15 | 39.68854 | 3.06880 | 4965 ft | 189 kts | 243° |
| 2026-05-04 12:15 | 39.68301 | 3.05369 | 4976 ft | 185 kts | 243° |
| 2026-05-04 12:16 | 39.67736 | 3.03830 | 4752 ft | 190 kts | 243° |
| 2026-05-04 12:16 | 39.67161 | 3.02264 | 4509 ft | 193 kts | 244° |
| 2026-05-04 12:16 | 39.66591 | 3.00711 | 4252 ft | 188 kts | 244° |
| 2026-05-04 12:16 | 39.66039 | 2.99209 | 4008 ft | 186 kts | 243° |
| 2026-05-04 12:17 | 39.65482 | 2.97697 | 3761 ft | 185 kts | 243° |
| 2026-05-04 12:17 | 39.64922 | 2.96200 | 3528 ft | 183 kts | 242° |
| 2026-05-04 12:17 | 39.64298 | 2.94754 | 3289 ft | 183 kts | 239° |
| 2026-05-04 12:17 | 39.63652 | 2.93358 | 3063 ft | 178 kts | 238° |
| 2026-05-04 12:18 | 39.63016 | 2.92007 | 2805 ft | 173 kts | 238° |
| 2026-05-04 12:18 | 39.62400 | 2.90702 | 2582 ft | 167 kts | 238° |
| 2026-05-04 12:18 | 39.61802 | 2.89436 | 2386 ft | 165 kts | 237° |
| 2026-05-04 12:18 | 39.61202 | 2.88170 | 2155 ft | 163 kts | 237° |
| 2026-05-04 12:19 | 39.60617 | 2.86931 | 1927 ft | 158 kts | 237° |
| 2026-05-04 12:19 | 39.60061 | 2.85749 | 1758 ft | 148 kts | 238° |
| 2026-05-04 12:19 | 39.59529 | 2.84626 | 1530 ft | 144 kts | 237° |
| 2026-05-04 12:19 | 39.59033 | 2.83555 | 1375 ft | 138 kts | 238° |
| 2026-05-04 12:20 | 39.58522 | 2.82480 | 1184 ft | 141 kts | 238° |
| 2026-05-04 12:20 | 39.58023 | 2.81381 | 1088 ft | 139 kts | 238° |
| 2026-05-04 12:20 | 39.57529 | 2.80318 | 903 ft | 137 kts | 237° |
| 2026-05-04 12:20 | 39.57013 | 2.79281 | 671 ft | 137 kts | 238° |
| 2026-05-04 12:21 | 39.56536 | 2.78224 | 459 ft | 133 kts | 236° |
| 2026-05-04 12:21 | 39.56044 | 2.77218 | 251 ft | 134 kts | 238° |
| 2026-05-04 12:21 | 39.55556 | 2.76199 | 120 ft | 128 kts | 237° |
| 2026-05-04 12:21 | 39.55102 | 2.75224 | 34 ft | 124 kts | 236° |
| 2026-05-04 12:22 | 39.54687 | 2.74355 | 29 ft | 96 kts | 238° |
| 2026-05-04 12:22 | 39.54417 | 2.73784 | 29 ft | 53 kts | 238° |
| 2026-05-04 12:22 | 39.54290 | 2.73513 | 29 ft | 32 kts | 244° |
| 2026-05-04 12:22 | 39.54281 | 2.73293 | 29 ft | 19 kts | 274° |
| 2026-05-04 12:23 | 39.54311 | 2.73172 | 29 ft | 7 kts | 334° |
| 2026-05-04 12:23 | 39.54342 | 2.73180 | 29 ft | 3 kts | 52° |
| 2026-05-04 12:23 | 39.54355 | 2.73205 | 29 ft | 3 kts | 57° |
| 2026-05-04 12:23 | 39.54367 | 2.73233 | 29 ft | 4 kts | 60° |
| 2026-05-04 12:24 | 39.54383 | 2.73268 | 29 ft | 5 kts | 59° |
| 2026-05-04 12:24 | 39.54402 | 2.73307 | 29 ft | 5 kts | 58° |
| 2026-05-04 12:24 | 39.54420 | 2.73346 | 29 ft | 5 kts | 58° |
| 2026-05-04 12:24 | 39.54438 | 2.73383 | 29 ft | 5 kts | 58° |
| 2026-05-04 12:25 | 39.54456 | 2.73420 | 29 ft | 5 kts | 58° |
| 2026-05-04 12:25 | 39.54474 | 2.73457 | 29 ft | 5 kts | 58° |
| 2026-05-04 12:25 | 39.54493 | 2.73497 | 29 ft | 6 kts | 59° |
| 2026-05-04 12:25 | 39.54519 | 2.73553 | 29 ft | 9 kts | 59° |
| 2026-05-04 12:26 | 39.54552 | 2.73621 | 29 ft | 9 kts | 51° |
| 2026-05-04 12:26 | 39.54604 | 2.73633 | 29 ft | 8 kts | 325° |
| 2026-05-04 12:26 | 39.54614 | 2.73570 | 29 ft | 8 kts | 245° |
| 2026-05-04 12:26 | 39.54585 | 2.73514 | 29 ft | 7 kts | 238° |
| 2026-05-04 12:27 | 39.54558 | 2.73458 | 29 ft | 7 kts | 238° |
| 2026-05-04 12:27 | 39.54533 | 2.73404 | 29 ft | 7 kts | 238° |
| 2026-05-04 12:27 | 39.54507 | 2.73351 | 29 ft | 7 kts | 238° |
| 2026-05-04 12:27 | 39.54483 | 2.73300 | 29 ft | 7 kts | 238° |
| 2026-05-04 12:28 | 39.54459 | 2.73249 | 29 ft | 7 kts | 238° |
| 2026-05-04 12:28 | 39.54442 | 2.73206 | 29 ft | 3 kts | 264° |
| 2026-05-04 12:28 | 39.54454 | 2.73188 | 29 ft | 3 kts | 325° |
| 2026-05-04 12:28 | 39.54458 | 2.73186 | 29 ft | 1 kts | 337° |
| 2026-05-04 12:29 | 39.54468 | 2.73182 | 29 ft | 2 kts | 345° |
| 2026-05-04 12:29 | 39.54480 | 2.73178 | 29 ft | 0 kts | 345° |